KAEJ

Central Colorado Regional Airport

Buena Vista, Colorado, USA
METAR KAEJ 161035Z AUTO 28003KT 10SM CLR M09/M13 A2994 RMK AO2 T10881130
Observed Flight Rules
Dec-16 @ 10:35 UTC (26 minutes ago) Visual Flight Rules
Wind Visibility Clouds
280° at 3 knots 10 miles
  • Clear skies
Temperatures Readings
Current -9°C / 16°F
Dewpoint -13°C / 9°F
Humidity 73%
Altimeter 29.94" Hg
Pressure 1014 hPa
Elevation 2422
METAR KAEJ 161035Z AUTO 28003KT 10SM CLR M09/M13 A2994 RMK AO2 T10881130
Observed Flight Rules
Dec-16 @ 10:35 UTC
(26 minutes ago)
VFR
Wind Visibility
280° at 3 knots 10 miles
Clouds
  • Clear skies
Temperature Dewpoint
-9°C / 16°F -13°C / 9°F
Humidity Altimeter Pressure
73% 29.94" Hg 1014 hPa